»·PEaware :: N313JD KSDL-KSNA

N313JD :: KSDL-KSNA

FLIGHT INFORMATION

Flight Status: Arrived
Operator: Privately registered:
United States
More flights under this callsign
Pilot: Jamyson D. (13674)
Aircraft: BOEING 757-200
(B752)
More flights by this aircraft type
Origin: KSDL Scottsdale
United States
Destination: KSNA John Wayne-Orange Co
United States
More flights between these airports :: More routes between these airports
Route: IZZZO6 HRRBR EMLLD DSNEE1
File this flight plan on PilotEdge
Remarks: PBN / A1B3B4B5C4D4O4 DOF / 170811 REG / N537SB EET / KZLA0019 RMK / TCAS SIMBRIEF
Altitude:
(Current/Filed)
40,000ft
Speed:
(Current/Filed)
432kts
Departed: 10-Aug-17 08:00 PM
Arrived: 10-Aug-17 08:53 PM
Distance/Time
Traveled:
298nm/0:53
Distance/Time
To Go:
Arrived

Flight Plot

Page will automatically refresh every two minutes.

Flight plan parsing failed; only flown route is shown


Map Options




Map Legend


Flown Route
Filed Route
Departure Airport
Arrival Airport
Navaid (VOR, NDB)
Fix

Horizontal Profiles

Position Reports

Time Latitude Longitude Heading Altitude Ground
Speed
10-Aug-17 19:51 33.624367 -111.906096 313 1493ft 0kts
10-Aug-17 19:52 33.624367 -111.906096 313 1493ft 0kts
10-Aug-17 19:53 33.624367 -111.906096 313 1493ft 0kts
10-Aug-17 19:54 33.624367 -111.906096 313 1493ft 0kts
10-Aug-17 19:55 33.624727 -111.906644 298 1492ft 0kts
10-Aug-17 19:56 33.624739 -111.906672 298 1491ft 2kts
10-Aug-17 19:57 33.625627 -111.906222 44 1494ft 5kts
10-Aug-17 19:58 33.626806 -111.904873 43 1498ft 6kts
10-Aug-17 19:59 33.628454 -111.902958 44 1503ft 8kts
10-Aug-17 20:00 33.630200 -111.900970 43 1508ft 9kts
10-Aug-17 20:01 33.630767 -111.900634 312 1509ft 0kts
10-Aug-17 20:02 33.630428 -111.901876 223 1507ft 26kts
10-Aug-17 20:03 33.610452 -111.943964 296 3783ft 215kts
10-Aug-17 20:04 33.670492 -111.978921 344 8943ft 254kts
10-Aug-17 20:05 33.744943 -112.006940 331 12786ft 311kts
10-Aug-17 20:06 33.779031 -112.099520 257 16905ft 337kts
10-Aug-17 20:07 33.727111 -112.191995 227 20730ft 347kts
10-Aug-17 20:08 33.665084 -112.282890 228 24220ft 359kts
10-Aug-17 20:09 33.601975 -112.376294 228 27402ft 367kts
10-Aug-17 20:10 33.537728 -112.471254 229 30189ft 375kts
10-Aug-17 20:11 33.472453 -112.570110 238 32672ft 384kts
10-Aug-17 20:12 33.452725 -112.695465 267 34906ft 402kts
10-Aug-17 20:13 33.460133 -112.829952 279 36844ft 421kts
10-Aug-17 20:14 33.485819 -112.968977 278 38562ft 437kts
10-Aug-17 20:15 33.512666 -113.113608 278 39887ft 449kts
10-Aug-17 20:16 33.539471 -113.258714 278 39869ft 447kts
10-Aug-17 20:17 33.566104 -113.404067 279 39894ft 456kts
10-Aug-17 20:18 33.593301 -113.552154 279 39888ft 456kts
10-Aug-17 20:19 33.620761 -113.699591 279 39887ft 456kts
10-Aug-17 20:20 33.648300 -113.846748 282 39880ft 457kts
10-Aug-17 20:21 33.699194 -113.987564 291 39883ft 462kts
10-Aug-17 20:22 33.751848 -114.127153 285 39881ft 459kts
10-Aug-17 20:23 33.774258 -114.276314 275 39882ft 454kts
10-Aug-17 20:24 33.792105 -114.426457 275 39880ft 453kts
10-Aug-17 20:25 33.809369 -114.575815 275 39880ft 454kts
10-Aug-17 20:26 33.825936 -114.725453 270 39882ft 452kts
10-Aug-17 20:27 33.836284 -114.873796 273 39884ft 453kts
10-Aug-17 20:28 33.851186 -115.017253 274 39883ft 452kts
10-Aug-17 20:29 33.867443 -115.166109 273 39882ft 449kts
10-Aug-17 20:30 33.883518 -115.313682 273 39843ft 448kts
10-Aug-17 20:31 33.899564 -115.462371 273 38839ft 449kts
10-Aug-17 20:32 33.915331 -115.610128 273 36119ft 448kts
10-Aug-17 20:33 33.927145 -115.757857 271 34032ft 453kts
10-Aug-17 20:34 33.937752 -115.908691 271 31370ft 458kts
10-Aug-17 20:35 33.946867 -116.039834 271 28999ft 444kts
10-Aug-17 20:36 33.956420 -116.185124 268 26514ft 430kts
10-Aug-17 20:37 33.943288 -116.316635 259 24439ft 414kts
10-Aug-17 20:38 33.926932 -116.450909 259 23223ft 384kts
10-Aug-17 20:39 33.911363 -116.575083 259 20912ft 374kts
10-Aug-17 20:40 33.896126 -116.693096 259 18737ft 365kts
10-Aug-17 20:41 33.882222 -116.808900 260 16655ft 355kts
10-Aug-17 20:42 33.870745 -116.913941 261 14773ft 346kts
10-Aug-17 20:43 33.858481 -117.025360 260 12786ft 337kts
10-Aug-17 20:44 33.847462 -117.124495 260 11166ft 327kts
10-Aug-17 20:45 33.836671 -117.220898 260 10259ft 299kts
10-Aug-17 20:46 33.826199 -117.313606 261 9235ft 281kts
10-Aug-17 20:47 33.816156 -117.402349 261 8192ft 267kts
10-Aug-17 20:48 33.799393 -117.478168 256 7744ft 241kts
10-Aug-17 20:49 33.818217 -117.551373 291 6727ft 240kts
10-Aug-17 20:50 33.829722 -117.625400 257 5960ft 223kts
10-Aug-17 20:51 33.811719 -117.691319 250 5099ft 221kts
10-Aug-17 20:52 33.782170 -117.755444 236 4202ft 219kts
10-Aug-17 20:53 33.745615 -117.809626 224 3590ft 189kts
10-Aug-17 20:54 33.706579 -117.847166 235 1372ft 189kts
10-Aug-17 20:55 33.670948 -117.871888 207 57ft 80kts
10-Aug-17 20:56 33.664607 -117.874356 182 57ft 0kts
10-Aug-17 20:57 33.664605 -117.874357 182 57ft 0kts
10-Aug-17 20:58 33.664605 -117.874357 182 57ft 0kts
10-Aug-17 20:59 33.664605 -117.874357 182 57ft 0kts
10-Aug-17 21:00 33.664605 -117.874357 182 57ft 0kts
10-Aug-17 21:01 33.664605 -117.874357 182 57ft 0kts
10-Aug-17 21:02 33.664605 -117.874357 182 57ft 0kts

Navigation Log

Ident Type
Flight plan parsing failed, navigation log unavailable